Time;durP1;ratioP1;P1;durP2;ratioP2;P2;SDS_P1;SDS_P2;PMS_P1;PMS_P2;Temp;Humidity;BMP_temperature;BMP_pressure;BME280_temperature;BME280_humidity;BME280_pressure;Samples;Min_cycle;Max_cycle;Signal;HPM_P1;HPM_P2
2022/12/16 00:00:21;;;;;;;37.15;23.20;;;;;;;;;;4994196;28;20015;-70
2022/12/16 00:02:47;;;;;;;38.95;25.17;;;;;;;;;;4992872;28;20060;-70
2022/12/16 00:05:12;;;;;;;38.78;23.23;;;;;;;;;;4993014;28;20030;-70
2022/12/16 00:07:38;;;;;;;40.10;24.63;;;;;;;;;;4993078;28;20038;-70
2022/12/16 00:10:04;;;;;;;41.42;25.60;;;;;;;;;;4976651;28;20050;-71
2022/12/16 00:12:29;;;;;;;36.15;23.55;;;;;;;;;;4992789;28;20041;-72
2022/12/16 00:14:55;;;;;;;40.42;22.80;;;;;;;;;;4992804;28;20101;-72
2022/12/16 00:17:20;;;;;;;36.40;24.60;;;;;;;;;;4993667;28;20042;-71
2022/12/16 00:19:46;;;;;;;41.95;26.08;;;;;;;;;;4992619;28;20026;-72
2022/12/16 00:22:11;;;;;;;40.75;26.15;;;;;;;;;;4993071;28;20089;-71
2022/12/16 00:24:37;;;;;;;38.85;23.95;;;;;;;;;;4992721;28;20443;-71
2022/12/16 00:27:05;;;;;;;41.00;23.17;;;;;;;;;;4993918;28;20105;-72
2022/12/16 00:29:30;;;;;;;42.10;24.00;;;;;;;;;;4993992;28;20033;-71
2022/12/16 00:31:57;;;;;;;42.90;24.55;;;;;;;;;;4993776;28;20030;-71
2022/12/16 00:34:22;;;;;;;41.67;26.13;;;;;;;;;;4994025;28;20026;-71
2022/12/16 00:36:47;;;;;;;34.55;20.63;;;;;;;;;;4992763;28;20118;-71
2022/12/16 00:39:13;;;;;;;40.22;23.42;;;;;;;;;;4994183;28;20033;-71
2022/12/16 00:41:39;;;;;;;40.38;23.48;;;;;;;;;;4993022;28;20481;-71
2022/12/16 00:44:04;;;;;;;45.60;26.25;;;;;;;;;;4992488;28;20027;-71
2022/12/16 00:46:30;;;;;;;38.97;23.42;;;;;;;;;;4994014;28;20030;-71
2022/12/16 00:48:56;;;;;;;41.92;22.58;;;;;;;;;;4992639;28;20022;-72
2022/12/16 00:51:22;;;;;;;36.50;21.70;;;;;;;;;;4993545;28;20040;-70
2022/12/16 00:53:47;;;;;;;40.05;23.05;;;;;;;;;;4993268;28;20367;-70
2022/12/16 00:56:13;;;;;;;40.13;21.23;;;;;;;;;;4992642;28;20034;-70
2022/12/16 00:58:39;;;;;;;38.63;22.67;;;;;;;;;;4993873;28;20078;-70
2022/12/16 01:01:05;;;;;;;40.67;23.23;;;;;;;;;;4992662;28;20081;-71
2022/12/16 01:03:30;;;;;;;38.50;23.70;;;;;;;;;;4993775;28;20030;-70
2022/12/16 01:05:56;;;;;;;41.20;22.88;;;;;;;;;;4993794;28;20022;-71
2022/12/16 01:08:22;;;;;;;43.38;24.45;;;;;;;;;;4993499;28;20081;-70
2022/12/16 01:10:52;;;;;;;43.58;24.55;;;;;;;;;;4995176;28;20090;-69
2022/12/16 01:13:18;;;;;;;41.20;24.60;;;;;;;;;;4996874;28;20022;-71
2022/12/16 01:15:44;;;;;;;40.08;22.58;;;;;;;;;;4995554;28;20040;-70
2022/12/16 01:18:10;;;;;;;41.22;22.95;;;;;;;;;;4996854;28;20101;-69
2022/12/16 01:20:35;;;;;;;44.33;25.13;;;;;;;;;;4996790;28;20393;-70
2022/12/16 01:23:01;;;;;;;41.67;23.42;;;;;;;;;;4995768;28;20113;-71
2022/12/16 01:25:26;;;;;;;41.25;24.02;;;;;;;;;;4996944;28;20034;-68
2022/12/16 01:27:52;;;;;;;41.92;23.00;;;;;;;;;;4995826;28;20026;-70
2022/12/16 01:30:18;;;;;;;43.00;25.48;;;;;;;;;;4995551;28;20084;-70
2022/12/16 01:32:43;;;;;;;41.50;23.27;;;;;;;;;;4997021;28;20030;-70
2022/12/16 01:35:09;;;;;;;39.65;24.65;;;;;;;;;;4995611;28;20034;-69
2022/12/16 01:37:35;;;;;;;43.92;25.20;;;;;;;;;;4996675;28;20029;-71
2022/12/16 01:40:01;;;;;;;43.80;24.90;;;;;;;;;;4996689;28;20029;-70
2022/12/16 01:42:31;;;;;;;47.92;26.98;;;;;;;;;;4995346;28;20029;-70
2022/12/16 01:45:17;;;;;;;47.65;28.52;;;;;;;;;;4995200;28;20379;-70
2022/12/16 01:47:44;;;;;;;43.80;28.92;;;;;;;;;;4996493;28;20041;-70
2022/12/16 01:50:15;;;;;;;41.53;24.45;;;;;;;;;;4996750;28;20026;-70
2022/12/16 01:52:44;;;;;;;43.20;26.40;;;;;;;;;;4979193;28;20394;-71
2022/12/16 01:55:20;;;;;;;46.80;28.60;;;;;;;;;;4995152;28;20046;-70
2022/12/16 01:57:48;;;;;;;47.63;29.58;;;;;;;;;;4996065;28;20428;-70
2022/12/16 02:00:14;;;;;;;46.53;29.17;;;;;;;;;;4996135;28;20018;-70
2022/12/16 02:02:42;;;;;;;47.92;28.73;;;;;;;;;;4994985;28;20156;-70
2022/12/16 02:05:20;;;;;;;46.50;28.48;;;;;;;;;;4996154;28;20466;-70
2022/12/16 02:07:53;;;;;;;49.10;30.20;;;;;;;;;;4994686;28;20122;-70
2022/12/16 02:10:20;;;;;;;50.05;29.08;;;;;;;;;;4996038;28;20054;-70
2022/12/16 02:12:53;;;;;;;48.30;27.23;;;;;;;;;;4994706;28;20035;-70
2022/12/16 02:15:20;;;;;;;44.55;27.40;;;;;;;;;;4994619;28;20066;-70
2022/12/16 02:17:48;;;;;;;44.83;27.67;;;;;;;;;;4996267;28;20427;-70
2022/12/16 02:20:36;;;;;;;48.45;29.38;;;;;;;;;;4995378;28;20386;-71
2022/12/16 02:23:17;;;;;;;43.28;27.42;;;;;;;;;;4995916;28;20038;-70
2022/12/16 02:25:42;;;;;;;;;;;;;;;;;;4995227;28;20049;-70
2022/12/16 02:28:12;;;;;;;45.58;28.73;;;;;;;;;;4994783;28;19906;-70
2022/12/16 02:30:43;;;;;;;44.10;27.73;;;;;;;;;;4994716;28;20061;-70
2022/12/16 02:33:27;;;;;;;46.83;27.65;;;;;;;;;;4995894;28;20574;-71
2022/12/16 02:35:58;;;;;;;49.90;31.55;;;;;;;;;;4994785;28;20129;-71
2022/12/16 02:38:39;;;;;;;47.97;28.05;;;;;;;;;;4995666;28;20038;-71
2022/12/16 02:41:18;;;;;;;48.03;26.58;;;;;;;;;;4994604;28;20022;-70
2022/12/16 02:43:57;;;;;;;46.92;26.63;;;;;;;;;;4995355;28;20093;-72
2022/12/16 02:46:29;;;;;;;47.92;26.80;;;;;;;;;;4994198;28;20466;-69
2022/12/16 02:51:40;;;;;;;44.25;25.75;;;;;;;;;;4992594;28;20354;-73
2022/12/16 02:54:07;;;;;;;45.95;27.70;;;;;;;;;;4995129;28;20048;-69
2022/12/16 02:56:50;;;;;;;43.58;26.13;;;;;;;;;;4977936;28;20026;-74
2022/12/16 02:59:34;;;;;;;44.38;26.00;;;;;;;;;;4995387;28;20033;-74
2022/12/16 03:02:11;;;;;;;43.20;28.02;;;;;;;;;;4995061;28;20034;-74
2022/12/16 03:04:42;;;;;;;36.90;23.58;;;;;;;;;;4994771;28;20512;-70
2022/12/16 03:07:10;;;;;;;40.80;25.85;;;;;;;;;;4977082;28;20509;-70
2022/12/16 03:09:37;;;;;;;38.90;26.83;;;;;;;;;;4994583;28;20447;-69
2022/12/16 03:12:04;;;;;;;36.67;23.73;;;;;;;;;;4994641;28;20032;-70
2022/12/16 03:14:31;;;;;;;38.20;23.98;;;;;;;;;;4994393;28;20077;-70
2022/12/16 03:16:57;;;;;;;33.08;22.52;;;;;;;;;;4994645;28;20030;-70
2022/12/16 03:19:23;;;;;;;36.47;24.23;;;;;;;;;;4994616;28;20019;-70
2022/12/16 03:22:01;;;;;;;50.92;35.15;;;;;;;;;;4994887;28;20018;-70
2022/12/16 03:24:28;;;;;;;85.53;48.70;;;;;;;;;;4977468;28;20541;-70
2022/12/16 03:27:02;;;;;;;57.70;39.08;;;;;;;;;;4994674;28;20098;-70
2022/12/16 03:29:44;;;;;;;86.13;71.07;;;;;;;;;;4994737;28;20483;-70
2022/12/16 03:32:15;;;;;;;54.72;44.65;;;;;;;;;;4994050;28;20034;-70
2022/12/16 03:34:50;;;;;;;57.22;47.22;;;;;;;;;;4994604;28;20038;-70
2022/12/16 03:37:19;;;;;;;46.63;35.17;;;;;;;;;;4994571;28;20367;-70
2022/12/16 03:39:49;;;;;;;54.08;47.40;;;;;;;;;;4977115;28;20386;-70
2022/12/16 03:42:16;;;;;;;34.88;22.20;;;;;;;;;;4977131;28;20030;-70
2022/12/16 03:44:42;;;;;;;32.40;24.08;;;;;;;;;;4994534;28;20129;-70
2022/12/16 03:47:08;;;;;;;29.65;22.23;;;;;;;;;;4994503;28;20455;-70
2022/12/16 03:49:34;;;;;;;27.65;19.45;;;;;;;;;;4994429;28;20065;-70
2022/12/16 03:52:00;;;;;;;29.13;21.13;;;;;;;;;;4994273;28;20385;-70
2022/12/16 03:54:25;;;;;;;29.30;20.00;;;;;;;;;;4994155;28;20034;-70
2022/12/16 03:56:51;;;;;;;28.38;18.83;;;;;;;;;;4976466;28;20034;-69
2022/12/16 03:59:16;;;;;;;28.58;20.42;;;;;;;;;;4994523;28;20049;-71
2022/12/16 04:01:42;;;;;;;28.30;18.75;;;;;;;;;;4994718;28;20393;-69
2022/12/16 04:04:08;;;;;;;28.65;19.73;;;;;;;;;;4977081;28;20022;-69
2022/12/16 04:06:33;;;;;;;28.45;20.45;;;;;;;;;;4994310;28;20426;-69
2022/12/16 04:08:59;;;;;;;28.30;18.30;;;;;;;;;;4994388;28;20061;-69
2022/12/16 04:25:14;;;;;;;27.30;19.38;;;;;;;;;;4976732;28;20038;-70
2022/12/16 04:27:45;;;;;;;24.42;18.25;;;;;;;;;;4976578;28;20172;-70
2022/12/16 04:30:17;;;;;;;25.15;17.63;;;;;;;;;;4994073;28;20045;-69
